sensor_id;sensor_type;location;lat;lon;timestamp;P1;durP1;ratioP1;P2;durP2;ratioP2
29238;SDS011;16267;48.194;11.546;2022-09-12T00:00:42;5.55;;;3.38;;
29238;SDS011;16267;48.194;11.546;2022-09-12T00:03:08;5.55;;;2.97;;
29238;SDS011;16267;48.194;11.546;2022-09-12T00:05:34;3.83;;;2.90;;
29238;SDS011;16267;48.194;11.546;2022-09-12T00:08:12;4.20;;;2.75;;
29238;SDS011;16267;48.194;11.546;2022-09-12T00:10:39;3.58;;;2.70;;
29238;SDS011;16267;48.194;11.546;2022-09-12T00:13:07;5.70;;;2.80;;
29238;SDS011;16267;48.194;11.546;2022-09-12T00:15:37;5.57;;;2.95;;
29238;SDS011;16267;48.194;11.546;2022-09-12T00:18:05;3.28;;;2.70;;
29238;SDS011;16267;48.194;11.546;2022-09-12T00:20:32;5.00;;;2.58;;
29238;SDS011;16267;48.194;11.546;2022-09-12T00:22:58;7.95;;;2.60;;
29238;SDS011;16267;48.194;11.546;2022-09-12T00:25:24;5.03;;;2.50;;
29238;SDS011;16267;48.194;11.546;2022-09-12T00:27:50;3.22;;;2.58;;
29238;SDS011;16267;48.194;11.546;2022-09-12T00:30:16;4.97;;;2.63;;
29238;SDS011;16267;48.194;11.546;2022-09-12T00:32:42;3.83;;;2.55;;
29238;SDS011;16267;48.194;11.546;2022-09-12T00:35:08;3.35;;;2.35;;
29238;SDS011;16267;48.194;11.546;2022-09-12T00:37:34;3.25;;;2.35;;
29238;SDS011;16267;48.194;11.546;2022-09-12T00:40:00;5.70;;;2.45;;
29238;SDS011;16267;48.194;11.546;2022-09-12T00:42:26;3.80;;;2.50;;
29238;SDS011;16267;48.194;11.546;2022-09-12T00:44:52;7.25;;;2.75;;
29238;SDS011;16267;48.194;11.546;2022-09-12T00:47:22;4.97;;;2.63;;
29238;SDS011;16267;48.194;11.546;2022-09-12T00:50:09;5.78;;;2.40;;
29238;SDS011;16267;48.194;11.546;2022-09-12T00:52:40;3.90;;;2.58;;
29238;SDS011;16267;48.194;11.546;2022-09-12T00:55:21;5.55;;;2.20;;
29238;SDS011;16267;48.194;11.546;2022-09-12T00:58:01;3.17;;;2.53;;
29238;SDS011;16267;48.194;11.546;2022-09-12T01:00:43;4.13;;;2.63;;
29238;SDS011;16267;48.194;11.546;2022-09-12T01:03:10;4.18;;;2.72;;
29238;SDS011;16267;48.194;11.546;2022-09-12T01:05:40;3.55;;;2.58;;
29238;SDS011;16267;48.194;11.546;2022-09-12T01:08:11;4.38;;;2.63;;
29238;SDS011;16267;48.194;11.546;2022-09-12T01:10:37;6.45;;;2.30;;
29238;SDS011;16267;48.194;11.546;2022-09-12T01:13:06;3.78;;;2.55;;
29238;SDS011;16267;48.194;11.546;2022-09-12T01:15:35;10.32;;;3.17;;
29238;SDS011;16267;48.194;11.546;2022-09-12T01:20:43;6.90;;;2.33;;
29238;SDS011;16267;48.194;11.546;2022-09-12T01:23:30;4.28;;;2.35;;
29238;SDS011;16267;48.194;11.546;2022-09-12T01:28:53;4.75;;;2.45;;
29238;SDS011;16267;48.194;11.546;2022-09-12T01:37:31;2.97;;;2.13;;
29238;SDS011;16267;48.194;11.546;2022-09-12T01:45:29;4.68;;;2.08;;
29238;SDS011;16267;48.194;11.546;2022-09-12T01:48:38;3.13;;;2.05;;
29238;SDS011;16267;48.194;11.546;2022-09-12T01:53:53;2.90;;;1.85;;
29238;SDS011;16267;48.194;11.546;2022-09-12T01:56:36;2.72;;;2.28;;
29238;SDS011;16267;48.194;11.546;2022-09-12T01:59:14;4.40;;;2.00;;
29238;SDS011;16267;48.194;11.546;2022-09-12T02:04:52;4.57;;;2.30;;
29238;SDS011;16267;48.194;11.546;2022-09-12T02:07:28;2.67;;;2.30;;
29238;SDS011;16267;48.194;11.546;2022-09-12T02:10:11;3.45;;;2.15;;
29238;SDS011;16267;48.194;11.546;2022-09-12T02:13:12;3.05;;;2.10;;
29238;SDS011;16267;48.194;11.546;2022-09-12T02:15:46;2.55;;;1.77;;
29238;SDS011;16267;48.194;11.546;2022-09-12T02:18:20;3.42;;;2.53;;
29238;SDS011;16267;48.194;11.546;2022-09-12T02:20:49;2.10;;;1.75;;
29238;SDS011;16267;48.194;11.546;2022-09-12T02:23:26;3.40;;;2.10;;
29238;SDS011;16267;48.194;11.546;2022-09-12T02:25:56;3.15;;;2.08;;
29238;SDS011;16267;48.194;11.546;2022-09-12T02:28:30;4.93;;;2.10;;
29238;SDS011;16267;48.194;11.546;2022-09-12T02:39:38;5.90;;;2.03;;
29238;SDS011;16267;48.194;11.546;2022-09-12T02:42:04;2.35;;;1.88;;
29238;SDS011;16267;48.194;11.546;2022-09-12T02:44:30;3.30;;;1.65;;
29238;SDS011;16267;48.194;11.546;2022-09-12T02:47:06;2.42;;;1.65;;
29238;SDS011;16267;48.194;11.546;2022-09-12T02:49:39;2.60;;;1.80;;
29238;SDS011;16267;48.194;11.546;2022-09-12T02:52:04;2.50;;;1.77;;
29238;SDS011;16267;48.194;11.546;2022-09-12T02:54:30;3.60;;;1.88;;
29238;SDS011;16267;48.194;11.546;2022-09-12T02:56:57;4.50;;;2.05;;
29238;SDS011;16267;48.194;11.546;2022-09-12T02:59:23;2.70;;;2.03;;
29238;SDS011;16267;48.194;11.546;2022-09-12T03:04:46;6.45;;;1.90;;
29238;SDS011;16267;48.194;11.546;2022-09-12T03:16:25;8.67;;;2.00;;
29238;SDS011;16267;48.194;11.546;2022-09-12T03:19:22;3.90;;;2.05;;
29238;SDS011;16267;48.194;11.546;2022-09-12T03:22:17;2.20;;;1.80;;
29238;SDS011;16267;48.194;11.546;2022-09-12T03:25:02;3.08;;;1.88;;
29238;SDS011;16267;48.194;11.546;2022-09-12T03:27:56;2.42;;;1.77;;
29238;SDS011;16267;48.194;11.546;2022-09-12T03:30:44;3.83;;;1.77;;
29238;SDS011;16267;48.194;11.546;2022-09-12T03:33:16;2.33;;;1.85;;
29238;SDS011;16267;48.194;11.546;2022-09-12T03:35:46;4.32;;;2.08;;
29238;SDS011;16267;48.194;11.546;2022-09-12T03:38:12;7.32;;;1.98;;
29238;SDS011;16267;48.194;11.546;2022-09-12T03:40:38;2.22;;;1.70;;
29238;SDS011;16267;48.194;11.546;2022-09-12T03:43:05;5.07;;;1.90;;
29238;SDS011;16267;48.194;11.546;2022-09-12T03:45:32;3.55;;;2.00;;
29238;SDS011;16267;48.194;11.546;2022-09-12T03:47:59;4.38;;;1.60;;
29238;SDS011;16267;48.194;11.546;2022-09-12T03:50:25;3.85;;;2.10;;
29238;SDS011;16267;48.194;11.546;2022-09-12T03:52:51;2.72;;;1.85;;
29238;SDS011;16267;48.194;11.546;2022-09-12T03:55:16;2.22;;;1.70;;
29238;SDS011;16267;48.194;11.546;2022-09-12T03:57:42;2.65;;;1.90;;
29238;SDS011;16267;48.194;11.546;2022-09-12T04:00:08;2.97;;;1.70;;
29238;SDS011;16267;48.194;11.546;2022-09-12T04:02:34;5.30;;;1.70;;
29238;SDS011;16267;48.194;11.546;2022-09-12T04:05:00;5.25;;;1.60;;
29238;SDS011;16267;48.194;11.546;2022-09-12T04:07:27;6.60;;;2.60;;
29238;SDS011;16267;48.194;11.546;2022-09-12T04:09:53;3.15;;;1.50;;
29238;SDS011;16267;48.194;11.546;2022-09-12T04:12:19;4.07;;;1.98;;
29238;SDS011;16267;48.194;11.546;2022-09-12T04:14:45;2.85;;;1.90;;
29238;SDS011;16267;48.194;11.546;2022-09-12T04:17:10;3.53;;;1.95;;
29238;SDS011;16267;48.194;11.546;2022-09-12T04:19:36;3.78;;;1.90;;
29238;SDS011;16267;48.194;11.546;2022-09-12T04:22:02;2.45;;;2.00;;
29238;SDS011;16267;48.194;11.546;2022-09-12T04:24:28;4.63;;;2.03;;
29238;SDS011;16267;48.194;11.546;2022-09-12T04:26:54;4.75;;;2.05;;
29238;SDS011;16267;48.194;11.546;2022-09-12T04:29:20;5.35;;;2.03;;
29238;SDS011;16267;48.194;11.546;2022-09-12T04:31:46;3.80;;;1.90;;
29238;SDS011;16267;48.194;11.546;2022-09-12T04:34:12;7.13;;;2.15;;
29238;SDS011;16267;48.194;11.546;2022-09-12T04:36:39;4.97;;;1.83;;
29238;SDS011;16267;48.194;11.546;2022-09-12T04:39:06;8.60;;;2.03;;
29238;SDS011;16267;48.194;11.546;2022-09-12T04:41:33;3.97;;;2.13;;
29238;SDS011;16267;48.194;11.546;2022-09-12T04:44:06;4.32;;;1.92;;
29238;SDS011;16267;48.194;11.546;2022-09-12T04:46:37;4.53;;;1.73;;
29238;SDS011;16267;48.194;11.546;2022-09-12T04:49:06;7.78;;;1.80;;
29238;SDS011;16267;48.194;11.546;2022-09-12T04:51:33;1.73;;;1.60;;
29238;SDS011;16267;48.194;11.546;2022-09-12T04:54:04;2.15;;;1.60;;
29238;SDS011;16267;48.194;11.546;2022-09-12T04:56:35;3.65;;;1.58;;
29238;SDS011;16267;48.194;11.546;2022-09-12T04:59:04;4.63;;;1.77;;
29238;SDS011;16267;48.194;11.546;2022-09-12T05:01:31;3.88;;;1.90;;
29238;SDS011;16267;48.194;11.546;2022-09-12T05:03:57;2.33;;;1.90;;
29238;SDS011;16267;48.194;11.546;2022-09-12T05:06:25;5.95;;;1.77;;
29238;SDS011;16267;48.194;11.546;2022-09-12T05:08:54;4.45;;;1.67;;
29238;SDS011;16267;48.194;11.546;2022-09-12T05:11:23;4.78;;;1.85;;
29238;SDS011;16267;48.194;11.546;2022-09-12T05:13:55;4.75;;;1.67;;
29238;SDS011;16267;48.194;11.546;2022-09-12T05:16:21;3.83;;;1.83;;
29238;SDS011;16267;48.194;11.546;2022-09-12T05:18:48;2.42;;;1.75;;
29238;SDS011;16267;48.194;11.546;2022-09-12T05:21:15;3.55;;;1.70;;
29238;SDS011;16267;48.194;11.546;2022-09-12T05:23:44;5.32;;;2.15;;
29238;SDS011;16267;48.194;11.546;2022-09-12T05:26:14;4.43;;;2.10;;
29238;SDS011;16267;48.194;11.546;2022-09-12T05:28:41;8.00;;;2.65;;
29238;SDS011;16267;48.194;11.546;2022-09-12T05:31:09;6.75;;;2.45;;
29238;SDS011;16267;48.194;11.546;2022-09-12T05:33:42;6.70;;;2.30;;
29238;SDS011;16267;48.194;11.546;2022-09-12T05:36:11;4.32;;;2.33;;
29238;SDS011;16267;48.194;11.546;2022-09-12T05:38:40;4.13;;;2.40;;
29238;SDS011;16267;48.194;11.546;2022-09-12T05:41:07;3.88;;;2.78;;
29238;SDS011;16267;48.194;11.546;2022-09-12T05:43:42;2.20;;;1.80;;
29238;SDS011;16267;48.194;11.546;2022-09-12T05:46:10;12.18;;;3.00;;
29238;SDS011;16267;48.194;11.546;2022-09-12T05:48:39;4.13;;;1.83;;
29238;SDS011;16267;48.194;11.546;2022-09-12T05:51:09;4.38;;;2.47;;
29238;SDS011;16267;48.194;11.546;2022-09-12T05:53:39;7.25;;;2.13;;
29238;SDS011;16267;48.194;11.546;2022-09-12T05:56:09;5.40;;;2.58;;
29238;SDS011;16267;48.194;11.546;2022-09-12T05:58:38;6.50;;;2.20;;
29238;SDS011;16267;48.194;11.546;2022-09-12T06:01:17;5.30;;;2.95;;
29238;SDS011;16267;48.194;11.546;2022-09-12T06:03:47;6.60;;;2.78;;
29238;SDS011;16267;48.194;11.546;2022-09-12T06:06:20;4.22;;;3.25;;
29238;SDS011;16267;48.194;11.546;2022-09-12T06:08:49;5.97;;;3.60;;
29238;SDS011;16267;48.194;11.546;2022-09-12T06:11:18;9.27;;;3.80;;
29238;SDS011;16267;48.194;11.546;2022-09-12T06:13:47;6.22;;;3.50;;
29238;SDS011;16267;48.194;11.546;2022-09-12T06:16:14;6.20;;;3.20;;
29238;SDS011;16267;48.194;11.546;2022-09-12T06:18:50;3.60;;;2.85;;
29238;SDS011;16267;48.194;11.546;2022-09-12T06:21:19;8.38;;;2.95;;
29238;SDS011;16267;48.194;11.546;2022-09-12T06:23:46;4.10;;;3.03;;
29238;SDS011;16267;48.194;11.546;2022-09-12T06:26:13;5.90;;;3.90;;
29238;SDS011;16267;48.194;11.546;2022-09-12T06:28:42;8.95;;;3.40;;
29238;SDS011;16267;48.194;11.546;2022-09-12T06:31:10;4.80;;;3.00;;
29238;SDS011;16267;48.194;11.546;2022-09-12T06:33:39;6.82;;;3.47;;
29238;SDS011;16267;48.194;11.546;2022-09-12T06:38:42;7.97;;;4.18;;
29238;SDS011;16267;48.194;11.546;2022-09-12T06:41:15;6.28;;;3.25;;
29238;SDS011;16267;48.194;11.546;2022-09-12T06:43:41;6.90;;;3.92;;
29238;SDS011;16267;48.194;11.546;2022-09-12T06:46:07;7.20;;;4.65;;
29238;SDS011;16267;48.194;11.546;2022-09-12T06:48:34;8.88;;;4.60;;
29238;SDS011;16267;48.194;11.546;2022-09-12T06:51:02;10.05;;;4.95;;
29238;SDS011;16267;48.194;11.546;2022-09-12T06:53:31;7.18;;;4.57;;
29238;SDS011;16267;48.194;11.546;2022-09-12T06:56:04;5.50;;;4.30;;
29238;SDS011;16267;48.194;11.546;2022-09-12T06:58:34;7.55;;;5.45;;
29238;SDS011;16267;48.194;11.546;2022-09-12T07:01:04;9.35;;;5.05;;
29238;SDS011;16267;48.194;11.546;2022-09-12T07:03:39;8.45;;;5.10;;
29238;SDS011;16267;48.194;11.546;2022-09-12T07:06:07;9.75;;;5.40;;
29238;SDS011;16267;48.194;11.546;2022-09-12T07:08:38;8.30;;;6.25;;
29238;SDS011;16267;48.194;11.546;2022-09-12T07:13:35;18.10;;;7.22;;
29238;SDS011;16267;48.194;11.546;2022-09-12T07:16:02;12.88;;;5.88;;
29238;SDS011;16267;48.194;11.546;2022-09-12T07:18:29;12.70;;;6.90;;
29238;SDS011;16267;48.194;11.546;2022-09-12T07:20:58;9.27;;;6.32;;
29238;SDS011;16267;48.194;11.546;2022-09-12T07:23:26;11.77;;;5.88;;
29238;SDS011;16267;48.194;11.546;2022-09-12T07:25:54;9.07;;;5.40;;
29238;SDS011;16267;48.194;11.546;2022-09-12T07:28:25;9.80;;;5.45;;
29238;SDS011;16267;48.194;11.546;2022-09-12T07:30:53;11.80;;;6.60;;
29238;SDS011;16267;48.194;11.546;2022-09-12T07:33:20;8.43;;;5.57;;
29238;SDS011;16267;48.194;11.546;2022-09-12T07:35:47;8.45;;;4.70;;
29238;SDS011;16267;48.194;11.546;2022-09-12T07:38:13;9.43;;;5.43;;
29238;SDS011;16267;48.194;11.546;2022-09-12T07:40:42;10.65;;;5.60;;
29238;SDS011;16267;48.194;11.546;2022-09-12T07:43:08;11.70;;;5.35;;
29238;SDS011;16267;48.194;11.546;2022-09-12T07:45:34;11.15;;;5.88;;
29238;SDS011;16267;48.194;11.546;2022-09-12T07:48:00;14.93;;;5.30;;
29238;SDS011;16267;48.194;11.546;2022-09-12T07:50:26;9.77;;;5.25;;
29238;SDS011;16267;48.194;11.546;2022-09-12T07:52:52;11.77;;;5.35;;
29238;SDS011;16267;48.194;11.546;2022-09-12T07:55:19;11.90;;;4.80;;
29238;SDS011;16267;48.194;11.546;2022-09-12T07:57:52;9.80;;;4.95;;
29238;SDS011;16267;48.194;11.546;2022-09-12T08:00:18;10.77;;;4.38;;
29238;SDS011;16267;48.194;11.546;2022-09-12T08:02:44;7.53;;;4.13;;
29238;SDS011;16267;48.194;11.546;2022-09-12T08:05:14;10.20;;;4.82;;
29238;SDS011;16267;48.194;11.546;2022-09-12T08:07:40;13.93;;;4.85;;
29238;SDS011;16267;48.194;11.546;2022-09-12T08:10:05;9.30;;;4.53;;
29238;SDS011;16267;48.194;11.546;2022-09-12T08:12:32;11.45;;;3.80;;
29238;SDS011;16267;48.194;11.546;2022-09-12T08:14:59;11.68;;;3.95;;
29238;SDS011;16267;48.194;11.546;2022-09-12T08:17:25;8.90;;;4.80;;
29238;SDS011;16267;48.194;11.546;2022-09-12T08:19:51;6.80;;;3.92;;
29238;SDS011;16267;48.194;11.546;2022-09-12T08:22:17;8.73;;;4.15;;
29238;SDS011;16267;48.194;11.546;2022-09-12T08:24:46;7.63;;;3.75;;
29238;SDS011;16267;48.194;11.546;2022-09-12T08:27:13;4.53;;;3.33;;
29238;SDS011;16267;48.194;11.546;2022-09-12T08:29:39;4.57;;;3.10;;
29238;SDS011;16267;48.194;11.546;2022-09-12T08:32:05;3.88;;;2.85;;
29238;SDS011;16267;48.194;11.546;2022-09-12T08:34:31;5.00;;;2.50;;
29238;SDS011;16267;48.194;11.546;2022-09-12T08:36:57;5.28;;;3.30;;
29238;SDS011;16267;48.194;11.546;2022-09-12T08:39:23;3.30;;;2.17;;
29238;SDS011;16267;48.194;11.546;2022-09-12T08:42:00;3.67;;;1.90;;
29238;SDS011;16267;48.194;11.546;2022-09-12T08:44:30;5.47;;;2.90;;
29238;SDS011;16267;48.194;11.546;2022-09-12T08:47:39;3.08;;;2.10;;
29238;SDS011;16267;48.194;11.546;2022-09-12T08:58:18;3.72;;;2.10;;
29238;SDS011;16267;48.194;11.546;2022-09-12T09:07:14;14.50;;;6.22;;
29238;SDS011;16267;48.194;11.546;2022-09-12T09:16:16;4.80;;;2.20;;
29238;SDS011;16267;48.194;11.546;2022-09-12T09:19:00;5.43;;;1.90;;
29238;SDS011;16267;48.194;11.546;2022-09-12T09:21:41;2.90;;;1.85;;
29238;SDS011;16267;48.194;11.546;2022-09-12T09:24:32;5.22;;;1.80;;
29238;SDS011;16267;48.194;11.546;2022-09-12T09:30:17;3.05;;;2.05;;
29238;SDS011;16267;48.194;11.546;2022-09-12T09:32:49;9.90;;;2.70;;
29238;SDS011;16267;48.194;11.546;2022-09-12T09:35:31;6.18;;;1.92;;
29238;SDS011;16267;48.194;11.546;2022-09-12T09:43:55;3.55;;;1.92;;
29238;SDS011;16267;48.194;11.546;2022-09-12T09:46:22;5.10;;;2.20;;
29238;SDS011;16267;48.194;11.546;2022-09-12T09:48:49;2.97;;;1.55;;
29238;SDS011;16267;48.194;11.546;2022-09-12T09:51:18;5.45;;;2.58;;
29238;SDS011;16267;48.194;11.546;2022-09-12T09:54:00;9.30;;;2.10;;
29238;SDS011;16267;48.194;11.546;2022-09-12T09:56:40;3.60;;;1.60;;
29238;SDS011;16267;48.194;11.546;2022-09-12T09:59:28;4.07;;;1.80;;
29238;SDS011;16267;48.194;11.546;2022-09-12T10:02:02;5.18;;;1.85;;
29238;SDS011;16267;48.194;11.546;2022-09-12T10:04:54;1.75;;;1.63;;
29238;SDS011;16267;48.194;11.546;2022-09-12T10:07:22;2.08;;;1.80;;
29238;SDS011;16267;48.194;11.546;2022-09-12T10:10:12;2.40;;;1.58;;
29238;SDS011;16267;48.194;11.546;2022-09-12T10:12:43;2.53;;;1.83;;
29238;SDS011;16267;48.194;11.546;2022-09-12T10:15:17;5.10;;;1.90;;
29238;SDS011;16267;48.194;11.546;2022-09-12T10:17:50;3.42;;;1.60;;
29238;SDS011;16267;48.194;11.546;2022-09-12T10:20:36;2.00;;;1.80;;
29238;SDS011;16267;48.194;11.546;2022-09-12T10:25:53;3.28;;;2.33;;
29238;SDS011;16267;48.194;11.546;2022-09-12T10:28:32;2.17;;;1.73;;
29238;SDS011;16267;48.194;11.546;2022-09-12T10:31:14;2.88;;;2.10;;
29238;SDS011;16267;48.194;11.546;2022-09-12T10:33:53;3.08;;;2.00;;
29238;SDS011;16267;48.194;11.546;2022-09-12T10:36:24;2.53;;;1.70;;
29238;SDS011;16267;48.194;11.546;2022-09-12T10:38:54;2.10;;;1.90;;
29238;SDS011;16267;48.194;11.546;2022-09-12T10:41:23;4.95;;;2.25;;
29238;SDS011;16267;48.194;11.546;2022-09-12T10:43:49;2.55;;;2.28;;
29238;SDS011;16267;48.194;11.546;2022-09-12T10:49:10;3.03;;;2.05;;
29238;SDS011;16267;48.194;11.546;2022-09-12T10:51:48;4.57;;;2.22;;
29238;SDS011;16267;48.194;11.546;2022-09-12T10:54:16;3.08;;;2.17;;
29238;SDS011;16267;48.194;11.546;2022-09-12T11:02:29;2.63;;;1.92;;
29238;SDS011;16267;48.194;11.546;2022-09-12T11:11:24;3.13;;;1.77;;
29238;SDS011;16267;48.194;11.546;2022-09-12T11:14:32;2.72;;;2.38;;
29238;SDS011;16267;48.194;11.546;2022-09-12T11:25:33;3.70;;;1.60;;
29238;SDS011;16267;48.194;11.546;2022-09-12T11:31:34;2.78;;;2.00;;
29238;SDS011;16267;48.194;11.546;2022-09-12T11:34:07;3.45;;;2.00;;
29238;SDS011;16267;48.194;11.546;2022-09-12T11:39:38;4.22;;;1.90;;
29238;SDS011;16267;48.194;11.546;2022-09-12T11:42:10;2.33;;;1.58;;
29238;SDS011;16267;48.194;11.546;2022-09-12T11:44:48;3.92;;;1.50;;
29238;SDS011;16267;48.194;11.546;2022-09-12T11:47:37;2.20;;;1.52;;
29238;SDS011;16267;48.194;11.546;2022-09-12T11:50:11;2.38;;;1.80;;
29238;SDS011;16267;48.194;11.546;2022-09-12T11:52:50;2.13;;;1.55;;
29238;SDS011;16267;48.194;11.546;2022-09-12T11:55:26;3.75;;;1.48;;
29238;SDS011;16267;48.194;11.546;2022-09-12T11:58:00;2.58;;;1.60;;
29238;SDS011;16267;48.194;11.546;2022-09-12T12:00:30;1.83;;;1.40;;
29238;SDS011;16267;48.194;11.546;2022-09-12T12:06:06;2.53;;;1.48;;
29238;SDS011;16267;48.194;11.546;2022-09-12T12:08:43;1.60;;;1.40;;
29238;SDS011;16267;48.194;11.546;2022-09-12T12:11:13;4.35;;;1.70;;
29238;SDS011;16267;48.194;11.546;2022-09-12T12:13:58;3.03;;;1.48;;
29238;SDS011;16267;48.194;11.546;2022-09-12T12:16:38;1.92;;;1.40;;
29238;SDS011;16267;48.194;11.546;2022-09-12T12:21:43;1.75;;;1.38;;
29238;SDS011;16267;48.194;11.546;2022-09-12T12:24:16;2.45;;;1.40;;
29238;SDS011;16267;48.194;11.546;2022-09-12T12:26:57;1.55;;;1.40;;
29238;SDS011;16267;48.194;11.546;2022-09-12T12:32:21;3.33;;;1.10;;
29238;SDS011;16267;48.194;11.546;2022-09-12T12:34:48;2.15;;;1.40;;
29238;SDS011;16267;48.194;11.546;2022-09-12T12:45:03;2.25;;;1.30;;
29238;SDS011;16267;48.194;11.546;2022-09-12T12:47:51;1.77;;;1.55;;
29238;SDS011;16267;48.194;11.546;2022-09-12T12:50:31;3.65;;;1.60;;
29238;SDS011;16267;48.194;11.546;2022-09-12T12:53:04;1.90;;;1.58;;
29238;SDS011;16267;48.194;11.546;2022-09-12T12:58:28;1.60;;;1.40;;
29238;SDS011;16267;48.194;11.546;2022-09-12T13:03:40;2.20;;;1.60;;
29238;SDS011;16267;48.194;11.546;2022-09-12T13:06:33;2.30;;;1.13;;
29238;SDS011;16267;48.194;11.546;2022-09-12T13:09:06;3.65;;;1.55;;
29238;SDS011;16267;48.194;11.546;2022-09-12T13:11:45;2.58;;;1.45;;
29238;SDS011;16267;48.194;11.546;2022-09-12T13:17:13;1.33;;;1.23;;
29238;SDS011;16267;48.194;11.546;2022-09-12T13:20:05;2.17;;;1.30;;
29238;SDS011;16267;48.194;11.546;2022-09-12T13:22:54;1.42;;;1.20;;
29238;SDS011;16267;48.194;11.546;2022-09-12T13:30:43;2.38;;;1.60;;
29238;SDS011;16267;48.194;11.546;2022-09-12T13:33:24;1.35;;;1.25;;
29238;SDS011;16267;48.194;11.546;2022-09-12T13:36:39;1.20;;;1.10;;
29238;SDS011;16267;48.194;11.546;2022-09-12T13:45:19;1.48;;;1.20;;
29238;SDS011;16267;48.194;11.546;2022-09-12T13:47:54;4.43;;;1.23;;
29238;SDS011;16267;48.194;11.546;2022-09-12T13:50:27;2.00;;;1.10;;
29238;SDS011;16267;48.194;11.546;2022-09-12T13:53:02;3.03;;;1.35;;
29238;SDS011;16267;48.194;11.546;2022-09-12T13:58:01;4.97;;;1.45;;
29238;SDS011;16267;48.194;11.546;2022-09-12T14:00:45;2.70;;;1.27;;
29238;SDS011;16267;48.194;11.546;2022-09-12T14:03:25;1.48;;;1.10;;
29238;SDS011;16267;48.194;11.546;2022-09-12T14:06:16;1.63;;;1.30;;
29238;SDS011;16267;48.194;11.546;2022-09-12T14:08:46;2.78;;;1.20;;
29238;SDS011;16267;48.194;11.546;2022-09-12T14:11:18;1.95;;;1.55;;
29238;SDS011;16267;48.194;11.546;2022-09-12T14:13:51;2.83;;;1.42;;
29238;SDS011;16267;48.194;11.546;2022-09-12T14:16:21;8.30;;;2.17;;
29238;SDS011;16267;48.194;11.546;2022-09-12T14:18:51;2.83;;;1.27;;
29238;SDS011;16267;48.194;11.546;2022-09-12T14:21:35;3.75;;;1.38;;
29238;SDS011;16267;48.194;11.546;2022-09-12T14:24:02;2.65;;;1.40;;
29238;SDS011;16267;48.194;11.546;2022-09-12T14:26:33;2.45;;;1.10;;
29238;SDS011;16267;48.194;11.546;2022-09-12T14:29:03;2.58;;;1.00;;
29238;SDS011;16267;48.194;11.546;2022-09-12T14:31:33;3.72;;;1.50;;
29238;SDS011;16267;48.194;11.546;2022-09-12T14:36:49;1.27;;;1.10;;
29238;SDS011;16267;48.194;11.546;2022-09-12T14:39:20;1.30;;;1.20;;
29238;SDS011;16267;48.194;11.546;2022-09-12T14:44:57;1.40;;;1.02;;
29238;SDS011;16267;48.194;11.546;2022-09-12T14:47:32;1.58;;;1.08;;
29238;SDS011;16267;48.194;11.546;2022-09-12T14:50:13;2.90;;;1.15;;
29238;SDS011;16267;48.194;11.546;2022-09-12T14:52:42;1.35;;;0.90;;
29238;SDS011;16267;48.194;11.546;2022-09-12T14:57:40;1.77;;;1.10;;
29238;SDS011;16267;48.194;11.546;2022-09-12T15:02:37;1.52;;;1.00;;
29238;SDS011;16267;48.194;11.546;2022-09-12T15:07:36;2.03;;;1.20;;
29238;SDS011;16267;48.194;11.546;2022-09-12T15:10:04;2.42;;;0.82;;
29238;SDS011;16267;48.194;11.546;2022-09-12T15:12:49;1.98;;;1.20;;
29238;SDS011;16267;48.194;11.546;2022-09-12T15:15:29;1.83;;;1.30;;
29238;SDS011;16267;48.194;11.546;2022-09-12T15:17:54;1.63;;;1.20;;
29238;SDS011;16267;48.194;11.546;2022-09-12T15:20:20;4.93;;;1.20;;
29238;SDS011;16267;48.194;11.546;2022-09-12T15:22:47;1.63;;;1.15;;
29238;SDS011;16267;48.194;11.546;2022-09-12T15:25:13;3.63;;;1.55;;
29238;SDS011;16267;48.194;11.546;2022-09-12T15:27:39;2.83;;;1.13;;
29238;SDS011;16267;48.194;11.546;2022-09-12T15:30:06;1.27;;;1.17;;
29238;SDS011;16267;48.194;11.546;2022-09-12T15:32:34;0.90;;;0.85;;
29238;SDS011;16267;48.194;11.546;2022-09-12T15:35:00;1.00;;;0.90;;
29238;SDS011;16267;48.194;11.546;2022-09-12T15:37:27;3.70;;;1.05;;
29238;SDS011;16267;48.194;11.546;2022-09-12T15:39:53;3.85;;;1.38;;
29238;SDS011;16267;48.194;11.546;2022-09-12T15:42:26;1.92;;;1.00;;
29238;SDS011;16267;48.194;11.546;2022-09-12T15:44:53;3.13;;;1.02;;
29238;SDS011;16267;48.194;11.546;2022-09-12T15:47:19;2.58;;;1.15;;
29238;SDS011;16267;48.194;11.546;2022-09-12T15:49:46;1.23;;;1.10;;
29238;SDS011;16267;48.194;11.546;2022-09-12T15:52:13;3.65;;;1.25;;
29238;SDS011;16267;48.194;11.546;2022-09-12T15:54:40;1.45;;;1.30;;
29238;SDS011;16267;48.194;11.546;2022-09-12T15:57:07;2.70;;;1.10;;
29238;SDS011;16267;48.194;11.546;2022-09-12T15:59:34;4.60;;;1.20;;
29238;SDS011;16267;48.194;11.546;2022-09-12T16:02:00;2.78;;;1.30;;
29238;SDS011;16267;48.194;11.546;2022-09-12T16:04:27;4.20;;;1.10;;
29238;SDS011;16267;48.194;11.546;2022-09-12T16:06:54;2.15;;;0.98;;
29238;SDS011;16267;48.194;11.546;2022-09-12T16:09:21;2.63;;;1.30;;
29238;SDS011;16267;48.194;11.546;2022-09-12T16:11:48;5.40;;;1.42;;
29238;SDS011;16267;48.194;11.546;2022-09-12T16:14:15;4.18;;;1.33;;
29238;SDS011;16267;48.194;11.546;2022-09-12T16:16:43;2.40;;;1.42;;
29238;SDS011;16267;48.194;11.546;2022-09-12T16:19:15;1.33;;;1.23;;
29238;SDS011;16267;48.194;11.546;2022-09-12T16:21:41;2.75;;;1.50;;
29238;SDS011;16267;48.194;11.546;2022-09-12T16:24:06;3.17;;;1.40;;
29238;SDS011;16267;48.194;11.546;2022-09-12T16:26:32;3.28;;;1.58;;
29238;SDS011;16267;48.194;11.546;2022-09-12T16:28:58;1.55;;;1.20;;
29238;SDS011;16267;48.194;11.546;2022-09-12T16:31:25;1.90;;;1.50;;
29238;SDS011;16267;48.194;11.546;2022-09-12T16:33:51;3.72;;;1.27;;
29238;SDS011;16267;48.194;11.546;2022-09-12T16:36:18;1.92;;;1.20;;
29238;SDS011;16267;48.194;11.546;2022-09-12T16:38:49;2.35;;;1.20;;
29238;SDS011;16267;48.194;11.546;2022-09-12T16:41:18;1.33;;;1.08;;
29238;SDS011;16267;48.194;11.546;2022-09-12T16:43:47;2.92;;;1.50;;
29238;SDS011;16267;48.194;11.546;2022-09-12T16:46:14;1.75;;;1.50;;
29238;SDS011;16267;48.194;11.546;2022-09-12T16:48:46;3.20;;;1.30;;
29238;SDS011;16267;48.194;11.546;2022-09-12T16:51:15;3.13;;;1.40;;
29238;SDS011;16267;48.194;11.546;2022-09-12T16:53:44;2.28;;;1.50;;
29238;SDS011;16267;48.194;11.546;2022-09-12T16:56:10;3.88;;;1.83;;
29238;SDS011;16267;48.194;11.546;2022-09-12T16:58:38;2.20;;;1.70;;
29238;SDS011;16267;48.194;11.546;2022-09-12T17:01:09;4.70;;;1.73;;
29238;SDS011;16267;48.194;11.546;2022-09-12T17:03:37;1.70;;;1.27;;
29238;SDS011;16267;48.194;11.546;2022-09-12T17:06:04;2.88;;;1.58;;
29238;SDS011;16267;48.194;11.546;2022-09-12T17:08:37;3.17;;;1.90;;
29238;SDS011;16267;48.194;11.546;2022-09-12T17:11:10;4.88;;;2.05;;
29238;SDS011;16267;48.194;11.546;2022-09-12T17:13:45;2.45;;;1.55;;
29238;SDS011;16267;48.194;11.546;2022-09-12T17:16:12;2.25;;;1.75;;
29238;SDS011;16267;48.194;11.546;2022-09-12T17:18:38;2.40;;;1.67;;
29238;SDS011;16267;48.194;11.546;2022-09-12T17:21:05;2.90;;;1.63;;
29238;SDS011;16267;48.194;11.546;2022-09-12T17:23:32;3.70;;;1.80;;
29238;SDS011;16267;48.194;11.546;2022-09-12T17:25:58;6.18;;;2.80;;
29238;SDS011;16267;48.194;11.546;2022-09-12T17:28:24;4.97;;;2.65;;
29238;SDS011;16267;48.194;11.546;2022-09-12T17:30:58;2.40;;;2.00;;
29238;SDS011;16267;48.194;11.546;2022-09-12T17:33:26;5.32;;;3.10;;
29238;SDS011;16267;48.194;11.546;2022-09-12T17:35:53;4.60;;;2.60;;
29238;SDS011;16267;48.194;11.546;2022-09-12T17:38:24;4.50;;;2.55;;
29238;SDS011;16267;48.194;11.546;2022-09-12T17:40:50;2.58;;;2.03;;